Map

Track Data

SID SEASON NUMBER BASIN SUBBASIN NAME ISO_TIME NATURE LAT LON WMO_WIND WMO_PRES WMO_AGENCY TRACK_TYPE DIST2LAND LANDFALL IFLAG USA_AGENCY USA_ATCF_ID USA_LAT USA_LON USA_RECORD USA_STATUS USA_WIND USA_PRES USA_SSHS USA_R34_NE USA_R34_SE USA_R34_SW USA_R34_NW USA_R50_NE USA_R50_SE USA_R50_SW USA_R50_NW USA_R64_NE USA_R64_SE USA_R64_SW USA_R64_NW USA_POCI USA_ROCI USA_RMW USA_EYE TOKYO_LAT TOKYO_LON TOKYO_GRADE TOKYO_WIND TOKYO_PRES TOKYO_R50_DIR TOKYO_R50_LONG TOKYO_R50_SHORT TOKYO_R30_DIR TOKYO_R30_LONG TOKYO_R30_SHORT TOKYO_LAND CMA_LAT CMA_LON CMA_CAT CMA_WIND CMA_PRES HKO_LAT HKO_LON HKO_CAT HKO_WIND HKO_PRES NEWDELHI_LAT NEWDELHI_LON NEWDELHI_GRADE NEWDELHI_WIND NEWDELHI_PRES NEWDELHI_CI NEWDELHI_DP NEWDELHI_POCI REUNION_LAT REUNION_LON REUNION_TYPE REUNION_WIND REUNION_PRES REUNION_TNUM REUNION_CI REUNION_RMW REUNION_R34_NE REUNION_R34_SE REUNION_R34_SW REUNION_R34_NW REUNION_R50_NE REUNION_R50_SE REUNION_R50_SW REUNION_R50_NW REUNION_R64_NE REUNION_R64_SE REUNION_R64_SW REUNION_R64_NW BOM_LAT BOM_LON BOM_TYPE BOM_WIND BOM_PRES BOM_TNUM BOM_CI BOM_RMW BOM_R34_NE BOM_R34_SE BOM_R34_SW BOM_R34_NW BOM_R50_NE BOM_R50_SE BOM_R50_SW BOM_R50_NW BOM_R64_NE BOM_R64_SE BOM_R64_SW BOM_R64_NW BOM_ROCI BOM_POCI BOM_EYE BOM_POS_METHOD BOM_PRES_METHOD NADI_LAT NADI_LON NADI_CAT NADI_WIND NADI_PRES WELLINGTON_LAT WELLINGTON_LON WELLINGTON_WIND WELLINGTON_PRES DS824_LAT DS824_LON DS824_STAGE DS824_WIND DS824_PRES TD9636_LAT TD9636_LON TD9636_STAGE TD9636_WIND TD9636_PRES TD9635_LAT TD9635_LON TD9635_WIND TD9635_PRES TD9635_ROCI NEUMANN_LAT NEUMANN_LON NEUMANN_CLASS NEUMANN_WIND NEUMANN_PRES MLC_LAT MLC_LON MLC_CLASS MLC_WIND MLC_PRES USA_GUST BOM_GUST BOM_GUST_PER REUNION_GUST REUNION_GUST_PER USA_SEAHGT USA_SEARAD_NE USA_SEARAD_SE USA_SEARAD_SW USA_SEARAD_NW STORM_SPEED STORM_DIR
1856032S17058 1856 1 SI MM NOT_NAMED 1856-02-01 06:00:00 NR -16.6000 58.3500 reunion main 398 372 _____O____O___ -1 -15.8000 59.1000 99 9.90000 -17.4000 57.6000 7 5 219
1856032S17058 1856 1 SI MM NOT_NAMED 1856-02-01 09:00:00 NR -16.7942 58.1841 main 372 348 _____P____P___ -1 -16.0244 58.8726 99 -17.5641 57.4955 7 5 219
1856032S17058 1856 1 SI MM NOT_NAMED 1856-02-01 12:00:00 NR -16.9844 58.0201 main 348 325 _____P____P___ -1 -16.2463 58.6474 99 -17.7226 57.3927 7 5 220
1856032S17058 1856 1 SI MM NOT_NAMED 1856-02-01 15:00:00 NR -17.1666 57.8604 main 325 313 _____P____P___ -1 -16.4635 58.4272 99 -17.8697 57.2936 7 5 220
1856032S17058 1856 1 SI MM NOT_NAMED 1856-02-01 18:00:00 NR -17.3368 57.7074 main 313 290 _____P____O___ -1 -16.6736 58.2149 99 -18.0000 57.2000 7 4 221
1856032S17058 1856 1 SI MM NOT_NAMED 1856-02-01 21:00:00 NR -17.4932 57.5634 main 290 279 _____P____P___ -1 -16.8746 58.0131 99 -18.1119 57.1136 7 4 221
1856032S17058 1856 1 SI MM NOT_NAMED 1856-02-02 00:00:00 NR -17.6421 57.4298 main 279 258 _____P____P___ -1 -17.0641 57.8248 99 -18.2200 57.0349 7 4 219
1856032S17058 1856 1 SI MM NOT_NAMED 1856-02-02 03:00:00 NR -17.7915 57.3082 main 258 247 _____P____P___ -1 -17.2400 57.6528 99 -18.3431 56.9637 7 4 216
1856032S17058 1856 1 SI MM NOT_NAMED 1856-02-02 06:00:00 NR -17.9500 57.2000 reunion main 248 227 _____O____O___ -1 -17.4000 57.5000 99 9.90000 -18.5000 56.9000 7 4 211
1856032S17058 1856 1 SI MM NOT_NAMED 1856-02-02 09:00:00 NR -18.1287 57.1016 main 227 208 _____P____P___ -1 -17.5433 57.3684 99 -18.7141 56.8348 7 4 205
1856032S17058 1856 1 SI MM NOT_NAMED 1856-02-02 12:00:00 NR -18.3182 57.0173 main 208 186 _____P____P___ -1 -17.6739 57.2570 99 -18.9625 56.7776 7 4 201
1856032S17058 1856 1 SI MM NOT_NAMED 1856-02-02 15:00:00 NR -18.5136 56.9477 main 189 168 _____P____P___ -1 -17.7975 57.1637 99 -19.2297 56.7316 7 4 197
1856032S17058 1856 1 SI MM NOT_NAMED 1856-02-02 18:00:00 NR -18.7098 56.8933 main 168 148 _____P____O___ -1 -17.9195 57.0865 99 -19.5000 56.7000 7 4 194
1856032S17058 1856 1 SI MM NOT_NAMED 1856-02-02 21:00:00 NR -18.8976 56.8465 main 152 133 _____P____P___ -1 -18.0453 57.0236 99 -19.7500 56.6695 7 4 191
1856032S17058 1856 1 SI MM NOT_NAMED 1856-02-03 00:00:00 NR -19.0901 56.8140 main 133 115 _____P____P___ -1 -18.1803 56.9729 99 -20.0000 56.6552 7 4 185
1856032S17058 1856 1 SI MM NOT_NAMED 1856-02-03 03:00:00 NR -19.2900 56.7978 main 115 99 _____P____P___ -1 -18.3301 56.9324 99 -20.2500 56.6633 7 4 0
1856032S17058 1856 1 SI MM NOT_NAMED 1856-02-03 06:00:00 NR -19.5000 56.8000 reunion main 99 85 _____O____O___ -1 -18.5000 56.9000 99 9.90000 -20.5000 56.7000 7 4 0
1856032S17058 1856 1 SI MM NOT_NAMED 1856-02-03 09:00:00 NR -19.7360 56.8081 main 85 71 _____P____P___ -1 -18.7138 56.8491 99 -20.7581 56.7671 7 5 175
1856032S17058 1856 1 SI MM NOT_NAMED 1856-02-03 12:00:00 NR -19.9812 56.8346 main 71 53 _____P____P___ -1 -18.9474 56.8069 99 -21.0150 56.8623 7 5 172
1856032S17058 1856 1 SI MM NOT_NAMED 1856-02-03 15:00:00 NR -20.2302 56.8755 main 53 41 _____P____P___ -1 -19.1960 56.7746 99 -21.2644 56.9765 7 5 170
1856032S17058 1856 1 SI MM NOT_NAMED 1856-02-03 18:00:00 NR -20.4774 56.9266 main 41 33 _____P____O___ -1 -19.4549 56.7531 99 -21.5000 57.1000 7 5 169
1856032S17058 1856 1 SI MM NOT_NAMED 1856-02-03 21:00:00 NR -20.7209 56.9788 main 38 38 _____P____P___ -1 -19.7194 56.7438 99 -21.7225 57.2138 7 5 168
1856032S17058 1856 1 SI MM NOT_NAMED 1856-02-04 00:00:00 NR -20.9574 57.0414 main 64 59 _____P____P___ -1 -19.9849 56.7477 99 -21.9300 57.3351 7 5 165
1856032S17058 1856 1 SI MM NOT_NAMED 1856-02-04 03:00:00 NR -21.1846 57.1150 main 80 80 _____P____P___ -1 -20.2467 56.7661 99 -22.1225 57.4638 7 5 162
1856032S17058 1856 1 SI MM NOT_NAMED 1856-02-04 06:00:00 NR -21.4000 57.2000 reunion main 101 101 _____O____O___ -1 -20.5000 56.8000 99 9.90000 -22.3000 57.6000 7 4 159
1856032S17058 1856 1 SI MM NOT_NAMED 1856-02-04 09:00:00 NR -21.5964 57.2873 main 123 123 _____P____P___ -1 -20.7243 56.8276 99 -22.4684 57.7469 7 4 156
1856032S17058 1856 1 SI MM NOT_NAMED 1856-02-04 12:00:00 NR -21.7823 57.3847 main 145 145 _____P____P___ -1 -20.9420 56.8694 99 -22.6225 57.9001 7 4 153
1856032S17058 1856 1 SI MM NOT_NAMED 1856-02-04 15:00:00 NR -21.9601 57.4900 main 167 167 _____P____P___ -1 -21.1548 56.9268 99 -22.7653 58.0532 7 4 150
1856032S17058 1856 1 SI MM NOT_NAMED 1856-02-04 18:00:00 NR -22.1321 57.6006 main 178 178 _____P____O___ -1 -21.3642 57.0013 99 -22.9000 58.2000 7 4 149
1856032S17058 1856 1 SI MM NOT_NAMED 1856-02-04 21:00:00 NR -22.3061 57.7153 main 201 201 _____P____P___ -1 -21.5718 57.0943 99 -23.0403 58.3363 7 4 148
1856032S17058 1856 1 SI MM NOT_NAMED 1856-02-05 00:00:00 NR -22.4759 57.8363 main 223 223 _____P____P___ -1 -21.7793 57.2075 99 -23.1725 58.4651 7 4 145
1856032S17058 1856 1 SI MM NOT_NAMED 1856-02-05 03:00:00 NR -22.6408 57.9642 main 236 236 _____P____P___ -1 -21.9882 57.3422 99 -23.2934 58.5863 7 4 143
1856032S17058 1856 1 SI MM NOT_NAMED 1856-02-05 06:00:00 NR -22.8000 58.1000 reunion main 260 260 _____O____O___ -1 -22.2000 57.5000 99 9.90000 -23.4000 58.7000 7 4 141
1856032S17058 1856 1 SI MM NOT_NAMED 1856-02-05 09:00:00 NR -22.9616 58.2423 main 284 284 _____P____P___ -1 -22.4339 57.6773 99 -23.4893 58.8073 7 4 139
1856032S17058 1856 1 SI MM NOT_NAMED 1856-02-05 12:00:00 NR -23.1183 58.3936 main 299 299 _____P____P___ -1 -22.6716 57.8796 99 -23.5649 58.9076 7 4 137
1856032S17058 1856 1 SI MM NOT_NAMED 1856-02-05 15:00:00 NR -23.2714 58.5535 main 326 326 _____P____P___ -1 -22.9098 58.1029 99 -23.6331 59.0042 7 4 135
1856032S17058 1856 1 SI MM NOT_NAMED 1856-02-05 18:00:00 NR -23.4227 58.7218 main 340 340 _____P____O___ -1 -23.1454 58.3436 99 -23.7000 59.1000 7 4 134
1856032S17058 1856 1 SI MM NOT_NAMED 1856-02-05 21:00:00 NR -23.5669 58.8847 main 367 367 _____P____P___ -1 -23.3753 58.5976 99 -23.7585 59.1719 7 4 133
1856032S17058 1856 1 SI MM NOT_NAMED 1856-02-06 00:00:00 NR -23.7080 59.0545 main 385 385 _____P____P___ -1 -23.5964 58.8610 99 -23.8196 59.2481 7 4 131
1856032S17058 1856 1 SI MM NOT_NAMED 1856-02-06 03:00:00 NR -23.8508 59.2400 main 410 410 _____P____P___ -1 -23.8057 59.1298 99 -23.8960 59.3502 7 5 129
1856032S17058 1856 1 SI MM NOT_NAMED 1856-02-06 06:00:00 NR -24.0000 59.4500 reunion main 432 432 _____O____O___ -1 -24.0000 59.4000 99 9.90000 -24.0000 59.5000 7 5 127
1856032S17058 1856 1 SI MM NOT_NAMED 1856-02-06 09:00:00 NR -24.1661 59.6920 main 461 461 _____P____P___ -1 -24.1775 59.6556 99 -24.1546 59.7283 7 6 126
1856032S17058 1856 1 SI MM NOT_NAMED 1856-02-06 12:00:00 NR -24.3383 59.9600 main 486 486 _____P____P___ -1 -24.3413 59.9155 99 -24.3353 60.0044 7 6 124
1856032S17058 1856 1 SI MM NOT_NAMED 1856-02-06 15:00:00 NR -24.5079 60.2410 main 515 515 _____P____P___ -1 -24.4925 60.1785 99 -24.5233 60.3034 7 6 123
1856032S17058 1856 1 SI MM NOT_NAMED 1856-02-06 18:00:00 NR -24.6661 60.5217 main 550 550 _____P____O___ -1 -24.6322 60.4435 99 -24.7000 60.6000 7 6 121
1856032S17058 1856 1 SI MM NOT_NAMED 1856-02-06 21:00:00 NR -24.8064 60.7918 main 576 576 _____P____P___ -1 -24.7616 60.7093 99 -24.8512 60.8743 7 5 119
1856032S17058 1856 1 SI MM NOT_NAMED 1856-02-07 00:00:00 NR -24.9239 61.0403 main 596 596 _____P____P___ -1 -24.8819 60.9747 99 -24.9800 61.1277 7 5 116
1856032S17058 1856 1 SI MM NOT_NAMED 1856-02-07 03:00:00 NR -25.0275 61.2815 main 623 623 _____P____P___ -1 -24.9943 61.2387 99 -25.0938 61.3672 7 5 114
1856032S17058 1856 1 SI MM NOT_NAMED 1856-02-07 06:00:00 NR -25.1200 61.5200 reunion main 644 644 _____O____O___ -1 -25.1000 61.5000 99 9.90000 -25.2000 61.6000 7 5 112
1856032S17058 1856 1 SI MM NOT_NAMED 1856-02-07 09:00:00 NR -25.2001 61.7579 main 672 672 _____P________ -1 -25.2001 61.7579 99 7 5 111
1856032S17058 1856 1 SI MM NOT_NAMED 1856-02-07 12:00:00 NR -25.2952 62.0125 main 693 693 _____P________ -1 -25.2952 62.0125 99 7 5 112
1856032S17058 1856 1 SI MM NOT_NAMED 1856-02-07 15:00:00 NR -25.3862 62.2644 main 722 722 _____P________ -1 -25.3862 62.2644 99 7 5 112
1856032S17058 1856 1 SI MM NOT_NAMED 1856-02-07 18:00:00 NR -25.4736 62.5140 main 743 743 _____P________ -1 -25.4736 62.5140 99 5 111
1856032S17058 1856 1 SI MM NOT_NAMED 1856-02-07 21:00:00 NR -25.5580 62.7618 main 772 772 _____P________ -1 -25.5580 62.7618 99 5 110
1856032S17058 1856 1 SI MM NOT_NAMED 1856-02-08 00:00:00 NR -25.6401 63.0084 main 786 786 _____P________ -1 -25.6401 63.0084 99 5 110
1856032S17058 1856 1 SI MM NOT_NAMED 1856-02-08 03:00:00 NR -25.7206 63.2543 main 815 815 _____P________ -1 -25.7206 63.2543 99 5 110
1856032S17058 1856 1 SI MM NOT_NAMED 1856-02-08 06:00:00 NR -25.8000 63.5000 reunion main 837 _____O________ -1 -25.8000 63.5000 99 9.90000 5 110

About IBTrACS Database

This database is a web-friendly format of International Best Track Archive for Climate Stewardship (IBTrACS), a global best track data archive curated by NOAA dating back to 1842.

Updated: 2021-10-27